RJER(METAR)
04/24 09:00
RJER 240000Z 21029KT 9999 FEW040 BKN/// 13/06 Q1008 RMK A2977=
戻る
トップページへ戻る
IMOC Co,.Ltd.